Ayer, Massachusetts
Current Conditions -  °F | °C
As of 6:52 PM on Friday 31 Oct 2014 (Local Time) from KFIT Reporting Station
Overcast Overcast  
Wind Chill:   Ceiling: 3400
Heat Index:   Visibility: 10mi
Dew Point:   Wind: 7mph
Humidity: 61%   Direction: 70°ENE
Pressure: 30.01"   Gusts: NA
Location:  42.56°N, 71.58°W
Report Text: KFIT 312252Z AUTO 07006KT 10SM OVC034 09/02 A3001 RMK AO2 SLP167 T00940022
Loading
Personal Weather Stations






























Interactive Weather Map
Tropical Storm Tracking
New forecast layout! Learn more

10-Day Weather Forecast

Advertisements
Track Severe Weather on mobile